Friday Harbor Information

FAA: FHR - ICAO: KFHR

Friday Harbor (Airport) Location

State Washington
County San Juan
City Friday Harbor
Friday Harbor (Airport) is 0 miles southwest of Friday Harbor, WA.
Latitude 48-31-19.1000N
Longitude 123-01-27.7000W
Elevation 112ft

Friday Harbor METARs

METAR KFHR 172053Z AUTO 16007KT 10SM CLR 13/06 A3029 RMK AO2 SLP259 T01330061 50003
Altimeter 30.29"
Temperature 13.3°C (55.9°F)
Wind 160° at 7KT
Clouds Skies are clear.
Visibility 10.0mi
Time observed: 2022-05-17T20:53:00Z

Friday Harbor (Airport) Details

Status Operational
Activation March 1939
Ownership Public
Usage Public
Chart SEATTLE
ATC on-site No
Beacon schedule sunset-sunrise
Beacon color clear green

Friday Harbor (Airport) Contacts

Owner PORT OF FRIDAY HARBOR
Owner address PO BOX 889, FRIDAY HARBOR, WA 98250
Owner phone (360) 378-2688
Manager CURTIS L. BRYAN
Manager address 18520 SE 440, ENUMCLAW, WA 98022
Manager phone 360-825-1232

Friday Harbor Radio Frequencies

Friday Harbor (Airport) Radio Frequencies

UNICOM N/A
Common traffic advisory frequency (CTAF) 128.25